sensor_id;sensor_type;location;lat;lon;timestamp;temperature;humidity
23305;DHT22;11821;51.456;8.844;2022-10-16T00:00:42;15.10;99.90
23305;DHT22;11821;51.456;8.844;2022-10-16T00:03:10;15.10;99.90
23305;DHT22;11821;51.456;8.844;2022-10-16T00:05:41;15.10;99.90
23305;DHT22;11821;51.456;8.844;2022-10-16T00:08:10;15.00;99.90
23305;DHT22;11821;51.456;8.844;2022-10-16T00:10:36;15.00;99.90
23305;DHT22;11821;51.456;8.844;2022-10-16T00:13:04;14.90;99.90
23305;DHT22;11821;51.456;8.844;2022-10-16T00:15:33;14.90;99.90
23305;DHT22;11821;51.456;8.844;2022-10-16T00:18:03;14.90;99.90
23305;DHT22;11821;51.456;8.844;2022-10-16T00:20:33;14.90;99.90
23305;DHT22;11821;51.456;8.844;2022-10-16T00:23:00;14.90;99.90
23305;DHT22;11821;51.456;8.844;2022-10-16T00:25:26;14.90;99.90
23305;DHT22;11821;51.456;8.844;2022-10-16T00:27:52;14.90;99.90
23305;DHT22;11821;51.456;8.844;2022-10-16T00:30:18;14.90;99.90
23305;DHT22;11821;51.456;8.844;2022-10-16T00:32:45;14.90;99.90
23305;DHT22;11821;51.456;8.844;2022-10-16T00:35:11;14.80;99.90
23305;DHT22;11821;51.456;8.844;2022-10-16T00:37:38;14.80;99.90
23305;DHT22;11821;51.456;8.844;2022-10-16T00:40:04;14.80;99.90
23305;DHT22;11821;51.456;8.844;2022-10-16T00:42:31;14.80;99.90
23305;DHT22;11821;51.456;8.844;2022-10-16T00:44:57;14.90;99.90
23305;DHT22;11821;51.456;8.844;2022-10-16T00:47:43;14.80;99.90
23305;DHT22;11821;51.456;8.844;2022-10-16T00:50:30;14.80;99.90
23305;DHT22;11821;51.456;8.844;2022-10-16T00:52:58;14.70;99.90
23305;DHT22;11821;51.456;8.844;2022-10-16T00:55:27;14.70;99.90
23305;DHT22;11821;51.456;8.844;2022-10-16T00:57:54;14.70;99.90
23305;DHT22;11821;51.456;8.844;2022-10-16T01:00:23;14.60;99.90
23305;DHT22;11821;51.456;8.844;2022-10-16T01:02:56;14.60;99.90
23305;DHT22;11821;51.456;8.844;2022-10-16T01:05:23;14.70;99.90
23305;DHT22;11821;51.456;8.844;2022-10-16T01:08:13;14.60;99.90
23305;DHT22;11821;51.456;8.844;2022-10-16T01:13:38;14.60;99.90
23305;DHT22;11821;51.456;8.844;2022-10-16T01:16:13;14.60;99.90
23305;DHT22;11821;51.456;8.844;2022-10-16T01:18:48;14.60;99.90
23305;DHT22;11821;51.456;8.844;2022-10-16T01:21:35;14.50;99.90
23305;DHT22;11821;51.456;8.844;2022-10-16T01:31:57;14.50;99.90
23305;DHT22;11821;51.456;8.844;2022-10-16T01:34:32;14.50;99.90
23305;DHT22;11821;51.456;8.844;2022-10-16T01:37:08;14.50;99.90
23305;DHT22;11821;51.456;8.844;2022-10-16T01:39:39;14.50;99.90
23305;DHT22;11821;51.456;8.844;2022-10-16T01:42:20;14.40;99.90
23305;DHT22;11821;51.456;8.844;2022-10-16T01:44:50;14.40;99.90
23305;DHT22;11821;51.456;8.844;2022-10-16T01:47:19;14.40;99.90
23305;DHT22;11821;51.456;8.844;2022-10-16T01:49:48;14.40;99.90
23305;DHT22;11821;51.456;8.844;2022-10-16T01:52:18;14.40;99.90
23305;DHT22;11821;51.456;8.844;2022-10-16T01:54:47;14.30;99.90
23305;DHT22;11821;51.456;8.844;2022-10-16T01:57:16;14.30;99.90
23305;DHT22;11821;51.456;8.844;2022-10-16T01:59:48;14.30;99.90
23305;DHT22;11821;51.456;8.844;2022-10-16T02:02:17;14.30;99.90
23305;DHT22;11821;51.456;8.844;2022-10-16T02:04:53;14.30;99.90
23305;DHT22;11821;51.456;8.844;2022-10-16T02:07:20;14.30;99.90
23305;DHT22;11821;51.456;8.844;2022-10-16T02:09:48;14.40;99.90
23305;DHT22;11821;51.456;8.844;2022-10-16T02:14:45;14.20;99.90
23305;DHT22;11821;51.456;8.844;2022-10-16T02:17:16;14.30;99.90
23305;DHT22;11821;51.456;8.844;2022-10-16T02:19:44;14.30;99.90
23305;DHT22;11821;51.456;8.844;2022-10-16T02:22:27;14.20;99.90
23305;DHT22;11821;51.456;8.844;2022-10-16T02:25:00;14.10;99.90
23305;DHT22;11821;51.456;8.844;2022-10-16T02:30:48;14.20;99.90
23305;DHT22;11821;51.456;8.844;2022-10-16T02:33:17;14.20;99.90
23305;DHT22;11821;51.456;8.844;2022-10-16T02:35:46;14.10;99.90
23305;DHT22;11821;51.456;8.844;2022-10-16T02:38:15;14.10;99.90
23305;DHT22;11821;51.456;8.844;2022-10-16T02:40:42;14.10;99.90
23305;DHT22;11821;51.456;8.844;2022-10-16T02:43:08;14.10;99.90
23305;DHT22;11821;51.456;8.844;2022-10-16T02:45:35;14.10;99.90
23305;DHT22;11821;51.456;8.844;2022-10-16T02:48:02;14.10;99.90
23305;DHT22;11821;51.456;8.844;2022-10-16T02:50:28;14.00;99.90
23305;DHT22;11821;51.456;8.844;2022-10-16T02:52:55;14.10;99.90
23305;DHT22;11821;51.456;8.844;2022-10-16T02:55:21;14.00;99.90
23305;DHT22;11821;51.456;8.844;2022-10-16T02:57:47;14.10;99.90
23305;DHT22;11821;51.456;8.844;2022-10-16T03:00:16;14.00;99.90
23305;DHT22;11821;51.456;8.844;2022-10-16T03:02:43;14.10;99.90
23305;DHT22;11821;51.456;8.844;2022-10-16T03:05:10;14.00;99.90
23305;DHT22;11821;51.456;8.844;2022-10-16T03:07:36;13.90;99.90
23305;DHT22;11821;51.456;8.844;2022-10-16T03:10:03;13.90;99.90
23305;DHT22;11821;51.456;8.844;2022-10-16T03:12:29;13.90;99.90
23305;DHT22;11821;51.456;8.844;2022-10-16T03:14:56;13.90;99.90
23305;DHT22;11821;51.456;8.844;2022-10-16T03:17:23;13.90;99.90
23305;DHT22;11821;51.456;8.844;2022-10-16T03:19:49;13.90;99.90
23305;DHT22;11821;51.456;8.844;2022-10-16T03:22:16;13.90;99.90
23305;DHT22;11821;51.456;8.844;2022-10-16T03:24:42;13.90;99.90
23305;DHT22;11821;51.456;8.844;2022-10-16T03:27:08;13.90;99.90
23305;DHT22;11821;51.456;8.844;2022-10-16T03:29:35;13.90;99.90
23305;DHT22;11821;51.456;8.844;2022-10-16T03:32:02;13.80;99.90
23305;DHT22;11821;51.456;8.844;2022-10-16T03:34:29;13.70;99.90
23305;DHT22;11821;51.456;8.844;2022-10-16T03:36:55;13.70;99.90
23305;DHT22;11821;51.456;8.844;2022-10-16T03:39:22;13.60;99.90
23305;DHT22;11821;51.456;8.844;2022-10-16T03:41:48;13.60;99.90
23305;DHT22;11821;51.456;8.844;2022-10-16T03:44:14;13.60;99.90
23305;DHT22;11821;51.456;8.844;2022-10-16T03:46:41;13.60;99.90
23305;DHT22;11821;51.456;8.844;2022-10-16T03:49:07;13.60;99.90
23305;DHT22;11821;51.456;8.844;2022-10-16T03:51:34;13.70;99.90
23305;DHT22;11821;51.456;8.844;2022-10-16T03:54:00;13.70;99.90
23305;DHT22;11821;51.456;8.844;2022-10-16T03:56:26;13.70;99.90
23305;DHT22;11821;51.456;8.844;2022-10-16T03:58:52;13.70;99.90
23305;DHT22;11821;51.456;8.844;2022-10-16T04:01:19;13.70;99.90
23305;DHT22;11821;51.456;8.844;2022-10-16T04:03:45;13.70;99.90
23305;DHT22;11821;51.456;8.844;2022-10-16T04:06:11;13.70;99.90
23305;DHT22;11821;51.456;8.844;2022-10-16T04:08:38;13.70;99.90
23305;DHT22;11821;51.456;8.844;2022-10-16T04:11:05;13.80;99.90
23305;DHT22;11821;51.456;8.844;2022-10-16T04:13:31;13.80;99.90
23305;DHT22;11821;51.456;8.844;2022-10-16T04:15:58;13.80;99.90
23305;DHT22;11821;51.456;8.844;2022-10-16T04:18:24;13.80;99.90
23305;DHT22;11821;51.456;8.844;2022-10-16T04:20:53;13.70;99.90
23305;DHT22;11821;51.456;8.844;2022-10-16T04:23:20;13.80;99.90
23305;DHT22;11821;51.456;8.844;2022-10-16T04:25:46;13.80;99.90
23305;DHT22;11821;51.456;8.844;2022-10-16T04:28:13;13.70;99.90
23305;DHT22;11821;51.456;8.844;2022-10-16T04:30:39;13.50;99.90
23305;DHT22;11821;51.456;8.844;2022-10-16T04:33:05;13.60;99.90
23305;DHT22;11821;51.456;8.844;2022-10-16T04:35:32;13.70;99.90
23305;DHT22;11821;51.456;8.844;2022-10-16T04:37:58;13.70;99.90
23305;DHT22;11821;51.456;8.844;2022-10-16T04:40:24;13.70;99.90
23305;DHT22;11821;51.456;8.844;2022-10-16T04:42:51;13.80;99.90
23305;DHT22;11821;51.456;8.844;2022-10-16T04:45:17;13.80;99.90
23305;DHT22;11821;51.456;8.844;2022-10-16T04:47:44;13.90;99.90
23305;DHT22;11821;51.456;8.844;2022-10-16T04:50:10;13.90;99.90
23305;DHT22;11821;51.456;8.844;2022-10-16T04:52:36;13.90;99.90
23305;DHT22;11821;51.456;8.844;2022-10-16T04:55:03;14.00;99.90
23305;DHT22;11821;51.456;8.844;2022-10-16T04:57:30;13.90;99.90
23305;DHT22;11821;51.456;8.844;2022-10-16T04:59:56;13.90;99.90
23305;DHT22;11821;51.456;8.844;2022-10-16T05:02:23;13.90;99.90
23305;DHT22;11821;51.456;8.844;2022-10-16T05:04:49;14.00;99.90
23305;DHT22;11821;51.456;8.844;2022-10-16T05:07:15;14.00;99.90
23305;DHT22;11821;51.456;8.844;2022-10-16T05:09:42;14.00;99.90
23305;DHT22;11821;51.456;8.844;2022-10-16T05:12:08;14.00;99.90
23305;DHT22;11821;51.456;8.844;2022-10-16T05:14:34;13.90;99.90
23305;DHT22;11821;51.456;8.844;2022-10-16T05:17:01;13.90;99.90
23305;DHT22;11821;51.456;8.844;2022-10-16T05:19:27;13.90;99.90
23305;DHT22;11821;51.456;8.844;2022-10-16T05:21:53;13.90;99.90
23305;DHT22;11821;51.456;8.844;2022-10-16T05:24:20;13.90;99.90
23305;DHT22;11821;51.456;8.844;2022-10-16T05:26:46;13.90;99.90
23305;DHT22;11821;51.456;8.844;2022-10-16T05:29:13;13.90;99.90
23305;DHT22;11821;51.456;8.844;2022-10-16T05:31:39;13.90;99.90
23305;DHT22;11821;51.456;8.844;2022-10-16T05:34:05;13.90;99.90
23305;DHT22;11821;51.456;8.844;2022-10-16T05:36:32;13.90;99.90
23305;DHT22;11821;51.456;8.844;2022-10-16T05:38:58;13.90;99.90
23305;DHT22;11821;51.456;8.844;2022-10-16T05:41:24;13.80;99.90
23305;DHT22;11821;51.456;8.844;2022-10-16T05:43:52;13.80;99.90
23305;DHT22;11821;51.456;8.844;2022-10-16T05:46:19;13.90;99.90
23305;DHT22;11821;51.456;8.844;2022-10-16T05:48:45;13.90;99.90
23305;DHT22;11821;51.456;8.844;2022-10-16T05:51:13;13.90;99.90
23305;DHT22;11821;51.456;8.844;2022-10-16T05:53:41;13.80;99.90
23305;DHT22;11821;51.456;8.844;2022-10-16T05:56:10;13.80;99.90
23305;DHT22;11821;51.456;8.844;2022-10-16T05:58:38;13.80;99.90
23305;DHT22;11821;51.456;8.844;2022-10-16T06:01:12;13.80;99.90
23305;DHT22;11821;51.456;8.844;2022-10-16T06:03:38;13.70;99.90
23305;DHT22;11821;51.456;8.844;2022-10-16T06:08:35;13.70;99.90
23305;DHT22;11821;51.456;8.844;2022-10-16T06:11:07;13.70;99.90
23305;DHT22;11821;51.456;8.844;2022-10-16T06:13:33;13.70;99.90
23305;DHT22;11821;51.456;8.844;2022-10-16T06:16:00;13.70;99.90
23305;DHT22;11821;51.456;8.844;2022-10-16T06:18:28;13.70;99.90
23305;DHT22;11821;51.456;8.844;2022-10-16T06:20:55;13.70;99.90
23305;DHT22;11821;51.456;8.844;2022-10-16T06:23:22;13.70;99.90
23305;DHT22;11821;51.456;8.844;2022-10-16T06:25:49;13.80;99.90
23305;DHT22;11821;51.456;8.844;2022-10-16T06:28:16;13.70;99.90
23305;DHT22;11821;51.456;8.844;2022-10-16T06:30:42;13.70;99.90
23305;DHT22;11821;51.456;8.844;2022-10-16T06:33:10;13.70;99.90
23305;DHT22;11821;51.456;8.844;2022-10-16T06:35:37;13.70;99.90
23305;DHT22;11821;51.456;8.844;2022-10-16T06:38:03;13.70;99.90
23305;DHT22;11821;51.456;8.844;2022-10-16T06:40:30;13.70;99.90
23305;DHT22;11821;51.456;8.844;2022-10-16T06:42:56;13.80;99.90
23305;DHT22;11821;51.456;8.844;2022-10-16T06:45:22;13.80;99.90
23305;DHT22;11821;51.456;8.844;2022-10-16T06:47:49;13.80;99.90
23305;DHT22;11821;51.456;8.844;2022-10-16T06:50:15;13.80;99.90
23305;DHT22;11821;51.456;8.844;2022-10-16T06:52:41;13.80;99.90
23305;DHT22;11821;51.456;8.844;2022-10-16T06:55:08;13.80;99.90
23305;DHT22;11821;51.456;8.844;2022-10-16T06:57:34;13.90;99.90
23305;DHT22;11821;51.456;8.844;2022-10-16T07:00:00;13.90;99.90
23305;DHT22;11821;51.456;8.844;2022-10-16T07:02:27;14.00;99.90
23305;DHT22;11821;51.456;8.844;2022-10-16T07:04:53;14.10;99.90
23305;DHT22;11821;51.456;8.844;2022-10-16T07:07:19;14.10;99.90
23305;DHT22;11821;51.456;8.844;2022-10-16T07:09:45;14.10;99.90
23305;DHT22;11821;51.456;8.844;2022-10-16T07:12:12;14.20;99.90
23305;DHT22;11821;51.456;8.844;2022-10-16T07:14:38;14.20;99.90
23305;DHT22;11821;51.456;8.844;2022-10-16T07:17:04;14.20;99.90
23305;DHT22;11821;51.456;8.844;2022-10-16T07:19:31;14.20;99.90
23305;DHT22;11821;51.456;8.844;2022-10-16T07:21:57;14.40;99.90
23305;DHT22;11821;51.456;8.844;2022-10-16T07:24:23;14.40;99.90
23305;DHT22;11821;51.456;8.844;2022-10-16T07:26:50;14.50;99.90
23305;DHT22;11821;51.456;8.844;2022-10-16T07:29:19;14.60;99.90
23305;DHT22;11821;51.456;8.844;2022-10-16T07:31:46;14.70;99.90
23305;DHT22;11821;51.456;8.844;2022-10-16T07:34:14;14.70;99.90
23305;DHT22;11821;51.456;8.844;2022-10-16T07:36:41;14.70;99.90
23305;DHT22;11821;51.456;8.844;2022-10-16T07:39:07;14.70;99.90
23305;DHT22;11821;51.456;8.844;2022-10-16T07:41:34;14.80;99.90
23305;DHT22;11821;51.456;8.844;2022-10-16T07:44:03;14.80;99.90
23305;DHT22;11821;51.456;8.844;2022-10-16T07:46:30;14.90;99.90
23305;DHT22;11821;51.456;8.844;2022-10-16T07:48:57;14.90;99.90
23305;DHT22;11821;51.456;8.844;2022-10-16T07:51:24;14.90;99.90
23305;DHT22;11821;51.456;8.844;2022-10-16T07:53:52;15.00;99.90
23305;DHT22;11821;51.456;8.844;2022-10-16T07:56:19;15.00;99.90
23305;DHT22;11821;51.456;8.844;2022-10-16T07:58:46;15.10;99.90
23305;DHT22;11821;51.456;8.844;2022-10-16T08:01:14;15.10;99.90
23305;DHT22;11821;51.456;8.844;2022-10-16T08:03:45;15.20;99.90
23305;DHT22;11821;51.456;8.844;2022-10-16T08:06:12;15.30;99.90
23305;DHT22;11821;51.456;8.844;2022-10-16T08:08:38;15.40;99.90
23305;DHT22;11821;51.456;8.844;2022-10-16T08:11:04;15.40;99.90
23305;DHT22;11821;51.456;8.844;2022-10-16T08:13:34;15.50;99.90
23305;DHT22;11821;51.456;8.844;2022-10-16T08:16:00;15.50;99.90
23305;DHT22;11821;51.456;8.844;2022-10-16T08:18:27;15.60;99.90
23305;DHT22;11821;51.456;8.844;2022-10-16T08:20:58;15.60;99.90
23305;DHT22;11821;51.456;8.844;2022-10-16T08:23:26;15.70;99.90
23305;DHT22;11821;51.456;8.844;2022-10-16T08:25:53;15.90;99.90
23305;DHT22;11821;51.456;8.844;2022-10-16T08:28:20;16.00;99.90
23305;DHT22;11821;51.456;8.844;2022-10-16T08:30:47;16.10;99.90
23305;DHT22;11821;51.456;8.844;2022-10-16T08:33:13;16.40;99.90
23305;DHT22;11821;51.456;8.844;2022-10-16T08:35:40;16.50;99.90
23305;DHT22;11821;51.456;8.844;2022-10-16T08:38:06;16.60;99.90
23305;DHT22;11821;51.456;8.844;2022-10-16T08:40:35;16.70;99.90
23305;DHT22;11821;51.456;8.844;2022-10-16T08:48:54;16.90;99.90
23305;DHT22;11821;51.456;8.844;2022-10-16T08:51:29;16.80;99.90
23305;DHT22;11821;51.456;8.844;2022-10-16T08:53:57;16.90;99.90
23305;DHT22;11821;51.456;8.844;2022-10-16T08:56:25;16.90;99.90
23305;DHT22;11821;51.456;8.844;2022-10-16T08:58:53;17.00;99.90
23305;DHT22;11821;51.456;8.844;2022-10-16T09:01:21;17.00;99.90
23305;DHT22;11821;51.456;8.844;2022-10-16T09:17:43;17.20;99.90
23305;DHT22;11821;51.456;8.844;2022-10-16T09:20:32;17.40;99.90
23305;DHT22;11821;51.456;8.844;2022-10-16T09:23:18;17.40;99.90
23305;DHT22;11821;51.456;8.844;2022-10-16T09:25:47;17.40;99.90
23305;DHT22;11821;51.456;8.844;2022-10-16T09:28:16;17.50;99.90
23305;DHT22;11821;51.456;8.844;2022-10-16T09:30:45;17.70;99.90
23305;DHT22;11821;51.456;8.844;2022-10-16T09:33:12;18.10;99.90
23305;DHT22;11821;51.456;8.844;2022-10-16T09:35:41;18.30;99.90
23305;DHT22;11821;51.456;8.844;2022-10-16T09:38:09;18.70;99.90
23305;DHT22;11821;51.456;8.844;2022-10-16T09:40:46;18.90;99.90
23305;DHT22;11821;51.456;8.844;2022-10-16T09:43:28;19.20;99.90
23305;DHT22;11821;51.456;8.844;2022-10-16T09:46:00;19.40;99.90
23305;DHT22;11821;51.456;8.844;2022-10-16T09:48:43;19.60;99.90
23305;DHT22;11821;51.456;8.844;2022-10-16T09:56:26;20.00;99.90
23305;DHT22;11821;51.456;8.844;2022-10-16T09:58:58;19.80;99.90
23305;DHT22;11821;51.456;8.844;2022-10-16T10:01:48;19.70;99.90
23305;DHT22;11821;51.456;8.844;2022-10-16T10:04:15;19.50;99.90
23305;DHT22;11821;51.456;8.844;2022-10-16T10:12:03;19.70;99.90
23305;DHT22;11821;51.456;8.844;2022-10-16T10:14:34;19.60;99.90
23305;DHT22;11821;51.456;8.844;2022-10-16T10:19:44;20.40;99.90
23305;DHT22;11821;51.456;8.844;2022-10-16T10:22:24;20.60;99.90
23305;DHT22;11821;51.456;8.844;2022-10-16T10:25:14;20.90;99.90
23305;DHT22;11821;51.456;8.844;2022-10-16T10:46:51;21.80;99.90
23305;DHT22;11821;51.456;8.844;2022-10-16T10:58:06;22.10;99.90
23305;DHT22;11821;51.456;8.844;2022-10-16T11:09:00;22.00;99.90
23305;DHT22;11821;51.456;8.844;2022-10-16T11:11:56;21.80;99.90
23305;DHT22;11821;51.456;8.844;2022-10-16T11:14:38;21.90;99.90
23305;DHT22;11821;51.456;8.844;2022-10-16T11:17:10;22.00;99.90
23305;DHT22;11821;51.456;8.844;2022-10-16T11:19:42;22.10;99.90
23305;DHT22;11821;51.456;8.844;2022-10-16T11:23:10;22.00;99.90
23305;DHT22;11821;51.456;8.844;2022-10-16T11:30:39;21.80;99.90
23305;DHT22;11821;51.456;8.844;2022-10-16T11:41:49;21.50;99.90
23305;DHT22;11821;51.456;8.844;2022-10-16T11:47:37;21.60;99.90
23305;DHT22;11821;51.456;8.844;2022-10-16T11:55:36;21.80;99.90
23305;DHT22;11821;51.456;8.844;2022-10-16T12:00:51;22.00;99.90
23305;DHT22;11821;51.456;8.844;2022-10-16T12:08:40;21.80;99.90
23305;DHT22;11821;51.456;8.844;2022-10-16T12:13:47;21.60;99.90
23305;DHT22;11821;51.456;8.844;2022-10-16T12:18:45;21.90;99.90
23305;DHT22;11821;51.456;8.844;2022-10-16T12:21:13;22.20;99.90
23305;DHT22;11821;51.456;8.844;2022-10-16T12:23:51;22.50;99.90
23305;DHT22;11821;51.456;8.844;2022-10-16T12:26:30;22.70;99.90
23305;DHT22;11821;51.456;8.844;2022-10-16T12:31:47;22.80;99.90
23305;DHT22;11821;51.456;8.844;2022-10-16T12:34:22;22.80;99.90
23305;DHT22;11821;51.456;8.844;2022-10-16T12:36:49;22.90;99.90
23305;DHT22;11821;51.456;8.844;2022-10-16T12:39:27;23.00;99.90
23305;DHT22;11821;51.456;8.844;2022-10-16T12:42:23;23.00;99.90
23305;DHT22;11821;51.456;8.844;2022-10-16T12:44:50;23.20;99.90
23305;DHT22;11821;51.456;8.844;2022-10-16T12:49:59;23.20;99.90
23305;DHT22;11821;51.456;8.844;2022-10-16T12:52:38;23.20;99.90
23305;DHT22;11821;51.456;8.844;2022-10-16T12:55:16;23.30;99.90
23305;DHT22;11821;51.456;8.844;2022-10-16T13:01:29;23.30;99.90
23305;DHT22;11821;51.456;8.844;2022-10-16T13:06:42;23.20;99.90
23305;DHT22;11821;51.456;8.844;2022-10-16T13:25:54;22.90;99.90
23305;DHT22;11821;51.456;8.844;2022-10-16T13:28:29;22.70;99.90
23305;DHT22;11821;51.456;8.844;2022-10-16T13:30:58;22.60;99.90
23305;DHT22;11821;51.456;8.844;2022-10-16T13:33:38;22.40;99.90
23305;DHT22;11821;51.456;8.844;2022-10-16T13:36:06;22.40;99.90
23305;DHT22;11821;51.456;8.844;2022-10-16T13:38:35;22.40;99.90
23305;DHT22;11821;51.456;8.844;2022-10-16T13:41:13;22.40;99.90
23305;DHT22;11821;51.456;8.844;2022-10-16T13:43:46;22.50;99.90
23305;DHT22;11821;51.456;8.844;2022-10-16T13:46:21;22.50;99.90
23305;DHT22;11821;51.456;8.844;2022-10-16T13:49:18;22.50;99.90
23305;DHT22;11821;51.456;8.844;2022-10-16T13:51:56;22.40;99.90
23305;DHT22;11821;51.456;8.844;2022-10-16T13:54:24;22.30;99.90
23305;DHT22;11821;51.456;8.844;2022-10-16T13:56:51;22.20;99.90
23305;DHT22;11821;51.456;8.844;2022-10-16T13:59:34;22.20;99.90
23305;DHT22;11821;51.456;8.844;2022-10-16T14:04:43;22.10;99.90
23305;DHT22;11821;51.456;8.844;2022-10-16T14:07:17;22.00;99.90
23305;DHT22;11821;51.456;8.844;2022-10-16T14:09:48;22.00;99.90
23305;DHT22;11821;51.456;8.844;2022-10-16T14:12:16;21.90;99.90
23305;DHT22;11821;51.456;8.844;2022-10-16T14:14:48;21.80;99.90
23305;DHT22;11821;51.456;8.844;2022-10-16T14:17:19;21.70;99.90
23305;DHT22;11821;51.456;8.844;2022-10-16T14:19:48;21.70;99.90
23305;DHT22;11821;51.456;8.844;2022-10-16T14:22:38;21.70;99.90
23305;DHT22;11821;51.456;8.844;2022-10-16T14:30:59;21.70;99.90
23305;DHT22;11821;51.456;8.844;2022-10-16T14:38:30;21.60;99.90
23305;DHT22;11821;51.456;8.844;2022-10-16T14:40:58;21.70;99.90
23305;DHT22;11821;51.456;8.844;2022-10-16T14:43:32;21.70;99.90
23305;DHT22;11821;51.456;8.844;2022-10-16T14:46:02;21.80;99.90
23305;DHT22;11821;51.456;8.844;2022-10-16T14:48:29;21.90;99.90
23305;DHT22;11821;51.456;8.844;2022-10-16T14:50:56;21.90;99.90
23305;DHT22;11821;51.456;8.844;2022-10-16T14:53:22;21.80;99.90
23305;DHT22;11821;51.456;8.844;2022-10-16T14:55:48;21.80;99.90
23305;DHT22;11821;51.456;8.844;2022-10-16T14:58:16;21.80;99.90
23305;DHT22;11821;51.456;8.844;2022-10-16T15:00:43;21.70;99.90
23305;DHT22;11821;51.456;8.844;2022-10-16T15:03:10;21.70;99.90
23305;DHT22;11821;51.456;8.844;2022-10-16T15:05:36;21.80;99.90
23305;DHT22;11821;51.456;8.844;2022-10-16T15:08:03;21.70;99.90
23305;DHT22;11821;51.456;8.844;2022-10-16T15:10:43;21.60;99.90
23305;DHT22;11821;51.456;8.844;2022-10-16T15:13:13;21.70;99.90
23305;DHT22;11821;51.456;8.844;2022-10-16T15:15:44;21.60;99.90
23305;DHT22;11821;51.456;8.844;2022-10-16T15:18:12;21.70;99.90
23305;DHT22;11821;51.456;8.844;2022-10-16T15:20:41;21.60;99.90
23305;DHT22;11821;51.456;8.844;2022-10-16T15:23:16;21.60;99.90
23305;DHT22;11821;51.456;8.844;2022-10-16T15:25:54;21.50;99.90
23305;DHT22;11821;51.456;8.844;2022-10-16T15:28:22;21.50;99.90
23305;DHT22;11821;51.456;8.844;2022-10-16T15:30:53;21.50;99.90
23305;DHT22;11821;51.456;8.844;2022-10-16T15:33:25;21.40;99.90
23305;DHT22;11821;51.456;8.844;2022-10-16T15:35:54;21.40;99.90
23305;DHT22;11821;51.456;8.844;2022-10-16T15:38:21;21.30;99.90
23305;DHT22;11821;51.456;8.844;2022-10-16T15:40:49;21.30;99.90
23305;DHT22;11821;51.456;8.844;2022-10-16T15:43:18;21.20;99.90
23305;DHT22;11821;51.456;8.844;2022-10-16T15:46:05;21.20;99.90
23305;DHT22;11821;51.456;8.844;2022-10-16T15:48:32;21.00;99.90
23305;DHT22;11821;51.456;8.844;2022-10-16T15:51:05;21.00;99.90
23305;DHT22;11821;51.456;8.844;2022-10-16T15:53:32;20.90;99.90
23305;DHT22;11821;51.456;8.844;2022-10-16T15:56:04;20.80;99.90
23305;DHT22;11821;51.456;8.844;2022-10-16T15:58:30;20.70;99.90
23305;DHT22;11821;51.456;8.844;2022-10-16T16:00:59;20.70;99.90
23305;DHT22;11821;51.456;8.844;2022-10-16T16:03:28;20.60;99.90
23305;DHT22;11821;51.456;8.844;2022-10-16T16:05:55;20.50;99.90
23305;DHT22;11821;51.456;8.844;2022-10-16T16:08:21;20.50;99.90
23305;DHT22;11821;51.456;8.844;2022-10-16T16:11:06;20.40;99.90
23305;DHT22;11821;51.456;8.844;2022-10-16T16:13:32;20.40;99.90
23305;DHT22;11821;51.456;8.844;2022-10-16T16:16:00;20.30;99.90
23305;DHT22;11821;51.456;8.844;2022-10-16T16:18:26;20.20;99.90
23305;DHT22;11821;51.456;8.844;2022-10-16T16:20:54;20.10;99.90
23305;DHT22;11821;51.456;8.844;2022-10-16T16:23:21;20.00;99.90
23305;DHT22;11821;51.456;8.844;2022-10-16T16:28:33;19.90;99.90
23305;DHT22;11821;51.456;8.844;2022-10-16T16:31:00;19.80;99.90
23305;DHT22;11821;51.456;8.844;2022-10-16T16:33:26;19.70;99.90
23305;DHT22;11821;51.456;8.844;2022-10-16T16:36:00;19.60;99.90
23305;DHT22;11821;51.456;8.844;2022-10-16T16:38:27;19.50;99.90
23305;DHT22;11821;51.456;8.844;2022-10-16T16:40:54;19.40;99.90
23305;DHT22;11821;51.456;8.844;2022-10-16T16:43:27;19.30;99.90
23305;DHT22;11821;51.456;8.844;2022-10-16T16:45:54;19.30;99.90
23305;DHT22;11821;51.456;8.844;2022-10-16T16:48:21;19.30;99.90
23305;DHT22;11821;51.456;8.844;2022-10-16T16:50:47;19.20;99.90
23305;DHT22;11821;51.456;8.844;2022-10-16T16:53:14;19.20;99.90
23305;DHT22;11821;51.456;8.844;2022-10-16T16:55:40;19.10;99.90
23305;DHT22;11821;51.456;8.844;2022-10-16T16:58:06;19.00;99.90
23305;DHT22;11821;51.456;8.844;2022-10-16T17:00:33;19.00;99.90
23305;DHT22;11821;51.456;8.844;2022-10-16T17:02:59;18.90;99.90
23305;DHT22;11821;51.456;8.844;2022-10-16T17:05:26;18.90;99.90
23305;DHT22;11821;51.456;8.844;2022-10-16T17:07:52;18.90;99.90
23305;DHT22;11821;51.456;8.844;2022-10-16T17:10:18;18.80;99.90
23305;DHT22;11821;51.456;8.844;2022-10-16T17:12:45;18.80;99.90
23305;DHT22;11821;51.456;8.844;2022-10-16T17:15:11;18.70;99.90
23305;DHT22;11821;51.456;8.844;2022-10-16T17:17:37;18.70;99.90
23305;DHT22;11821;51.456;8.844;2022-10-16T17:20:04;18.70;99.90
23305;DHT22;11821;51.456;8.844;2022-10-16T17:22:30;18.60;99.90
23305;DHT22;11821;51.456;8.844;2022-10-16T17:24:56;18.50;99.90
23305;DHT22;11821;51.456;8.844;2022-10-16T17:27:23;18.50;99.90
23305;DHT22;11821;51.456;8.844;2022-10-16T17:29:52;18.50;99.90
23305;DHT22;11821;51.456;8.844;2022-10-16T17:32:19;18.50;99.90
23305;DHT22;11821;51.456;8.844;2022-10-16T17:34:46;18.40;99.90
23305;DHT22;11821;51.456;8.844;2022-10-16T17:37:13;18.40;99.90
23305;DHT22;11821;51.456;8.844;2022-10-16T17:39:39;18.40;99.90
23305;DHT22;11821;51.456;8.844;2022-10-16T17:42:05;18.40;99.90
23305;DHT22;11821;51.456;8.844;2022-10-16T17:44:32;18.40;99.90
23305;DHT22;11821;51.456;8.844;2022-10-16T17:46:58;18.30;99.90
23305;DHT22;11821;51.456;8.844;2022-10-16T17:49:24;18.30;99.90
23305;DHT22;11821;51.456;8.844;2022-10-16T17:51:52;18.30;99.90
23305;DHT22;11821;51.456;8.844;2022-10-16T17:54:19;18.30;99.90
23305;DHT22;11821;51.456;8.844;2022-10-16T17:56:46;18.20;99.90
23305;DHT22;11821;51.456;8.844;2022-10-16T17:59:14;18.20;99.90
23305;DHT22;11821;51.456;8.844;2022-10-16T18:01:40;18.20;99.90
23305;DHT22;11821;51.456;8.844;2022-10-16T18:04:10;18.10;99.90
23305;DHT22;11821;51.456;8.844;2022-10-16T18:06:39;18.20;99.90
23305;DHT22;11821;51.456;8.844;2022-10-16T18:09:07;18.20;99.90
23305;DHT22;11821;51.456;8.844;2022-10-16T18:11:34;18.10;99.90
23305;DHT22;11821;51.456;8.844;2022-10-16T18:14:00;18.10;99.90
23305;DHT22;11821;51.456;8.844;2022-10-16T18:16:29;18.00;99.90
23305;DHT22;11821;51.456;8.844;2022-10-16T18:18:56;18.00;99.90
23305;DHT22;11821;51.456;8.844;2022-10-16T18:21:23;17.90;99.90
23305;DHT22;11821;51.456;8.844;2022-10-16T18:23:52;18.00;99.90
23305;DHT22;11821;51.456;8.844;2022-10-16T18:26:20;17.90;99.90
23305;DHT22;11821;51.456;8.844;2022-10-16T18:28:47;17.90;99.90
23305;DHT22;11821;51.456;8.844;2022-10-16T18:31:15;17.90;99.90